Time;durP1;ratioP1;P1;durP2;ratioP2;P2;SDS_P1;SDS_P2;PMS_P1;PMS_P2;Temp;Humidity;BMP_temperature;BMP_pressure;BME280_temperature;BME280_humidity;BME280_pressure;Samples;Min_cycle;Max_cycle;Signal;HPM_P1;HPM_P2
2023/08/23 00:00:16;;;;;;;;;;;;;;;28.65;40.48;99613.09;5094636;28;19993;-78
2023/08/23 00:02:41;;;;;;;;;;;;;;;28.68;40.66;99610.59;5076504;28;19912;-79
2023/08/23 00:05:07;;;;;;;;;;;;;;;28.68;40.72;99605.19;5094826;28;19919;-79
2023/08/23 00:07:32;;;;;;;;;;;;;;;28.57;41.13;99616.50;5095134;28;19913;-77
2023/08/23 00:09:57;;;;;;;;;;;;;;;28.54;41.36;99615.19;5094717;28;19912;-80
2023/08/23 00:12:22;;;;;;;;;;;;;;;28.52;40.94;99617.38;5094671;28;19916;-77
2023/08/23 00:14:48;;;;;;;;;;;;;;;28.54;41.27;99617.09;5094271;28;20003;-79
2023/08/23 00:17:13;;;;;;;;;;;;;;;28.53;40.57;99627.16;5094543;28;19916;-78
2023/08/23 00:19:38;;;;;;;;;;;;;;;28.56;40.50;99620.31;5094868;28;19955;-78
2023/08/23 00:22:04;;;;;;;;;;;;;;;28.56;40.56;99625.75;5095151;28;19932;-78
2023/08/23 00:24:29;;;;;;;;;;;;;;;28.51;40.50;99623.91;5095091;28;19912;-78
2023/08/23 00:26:55;;;;;;;;;;;;;;;28.46;40.94;99621.28;5094722;28;19908;-78
2023/08/23 00:29:20;;;;;;;;;;;;;;;28.42;41.76;99631.91;5094500;28;19919;-78
2023/08/23 00:31:45;;;;;;;;;;;;;;;28.37;41.32;99629.28;5094935;28;19916;-78
2023/08/23 00:34:11;;;;;;;;;;;;;;;28.37;40.46;99625.75;5094723;28;19920;-78
2023/08/23 00:36:36;;;;;;;;;;;;;;;28.31;41.34;99622.31;5094747;28;20289;-78
2023/08/23 00:39:01;;;;;;;;;;;;;;;28.24;42.12;99623.72;5096180;28;19919;-79
2023/08/23 00:41:26;;;;;;;;;;;;;;;28.16;42.44;99636.03;5097370;28;19935;-79
2023/08/23 00:43:52;;;;;;;;;;;;;;;28.06;42.64;99626.09;5094724;28;19919;-78
2023/08/23 00:46:18;;;;;;;;;;;;;;;27.96;42.00;99637.09;5094309;28;20385;-77
2023/08/23 00:48:44;;;;;;;;;;;;;;;27.82;43.00;99630.75;5094445;28;19916;-78
2023/08/23 00:51:10;;;;;;;;;;;;;;;27.69;43.11;99626.84;5094455;28;19955;-78
2023/08/23 00:53:36;;;;;;;;;;;;;;;27.66;42.79;99634.75;5094198;28;19919;-78
2023/08/23 00:56:02;;;;;;;;;;;;;;;27.62;42.46;99631.78;5094375;28;19964;-77
2023/08/23 00:58:27;;;;;;;;;;;;;;;27.55;43.00;99631.31;5093985;28;19912;-78
2023/08/23 01:00:53;;;;;;;;;;;;;;;27.52;41.67;99634.59;5093795;28;20019;-78
2023/08/23 01:03:18;;;;;;;;;;;;;;;27.44;43.45;99637.91;5093654;28;20301;-78
2023/08/23 01:05:46;;;;;;;;;;;;;;;27.34;42.83;99638.81;5093970;28;19919;-78
2023/08/23 01:08:12;;;;;;;;;;;;;;;27.28;43.64;99639.13;5093826;28;19912;-78
2023/08/23 01:10:37;;;;;;;;;;;;;;;27.21;43.35;99639.47;5093700;28;20312;-79
2023/08/23 01:13:08;;;;;;;;;;;;;;;27.18;43.14;99638.16;5093939;28;19912;-79
2023/08/23 01:15:35;;;;;;;;;;;;;;;27.13;42.55;99635.47;5093711;28;19966;-79
2023/08/23 01:18:01;;;;;;;;;;;;;;;27.10;44.28;99637.94;5093604;28;19912;-78
2023/08/23 01:20:27;;;;;;;;;;;;;;;27.05;42.95;99635.28;5093695;28;20007;-76
2023/08/23 01:23:03;;;;;;;;;;;;;;;27.00;43.33;99640.75;5093401;28;19999;-77
2023/08/23 01:25:29;;;;;;;;;;;;;;;26.95;43.55;99640.75;5092865;28;19912;-79
2023/08/23 01:27:54;;;;;;;;;;;;;;;26.90;43.52;99633.47;5093666;28;19965;-79
2023/08/23 01:30:20;;;;;;;;;;;;;;;26.88;42.97;99632.94;5093581;28;20308;-79
2023/08/23 01:33:06;;;;;;;;;;;;;;;26.89;43.00;99627.25;5093336;28;19991;-77
2023/08/23 01:35:41;;;;;;;;;;;;;;;26.84;44.31;99626.47;5092930;28;20308;-79
2023/08/23 01:38:08;;;;;;;;;;;;;;;26.80;43.85;99628.94;5093122;28;19923;-77
2023/08/23 01:40:34;;;;;;;;;;;;;;;26.79;43.64;99629.22;5093018;28;19916;-79
2023/08/23 01:42:59;;;;;;;;;;;;;;;26.78;43.45;99622.19;5092860;28;20084;-79
2023/08/23 01:45:24;;;;;;;;;;;;;;;26.80;43.88;99628.13;5092691;28;19919;-78
2023/08/23 01:47:50;;;;;;;;;;;;;;;26.85;43.48;99625.38;5092773;28;19912;-78
2023/08/23 01:50:15;;;;;;;;;;;;;;;26.81;43.31;99621.63;5092724;28;19912;-78
2023/08/23 01:52:40;;;;;;;;;;;;;;;26.74;43.74;99621.09;5092579;28;19919;-78
2023/08/23 01:55:05;;;;;;;;;;;;;;;26.73;43.49;99622.19;5092455;28;19920;-78
2023/08/23 01:57:31;;;;;;;;;;;;;;;26.69;42.37;99616.53;5092597;28;20442;-78
2023/08/23 01:59:56;;;;;;;;;;;;;;;26.67;43.59;99624.13;5092317;28;19920;-78
2023/08/23 02:02:22;;;;;;;;;;;;;;;26.64;43.40;99618.47;5092653;28;20442;-78
2023/08/23 02:04:47;;;;;;;;;;;;;;;26.66;43.86;99627.13;5092456;28;19908;-78
2023/08/23 02:07:12;;;;;;;;;;;;;;;26.68;42.69;99619.53;5074081;28;19931;-78
2023/08/23 02:09:38;;;;;;;;;;;;;;;26.58;44.47;99612.28;5092040;28;19912;-78
2023/08/23 02:12:03;;;;;;;;;;;;;;;26.56;43.09;99617.97;5092121;28;20004;-78
2023/08/23 02:14:29;;;;;;;;;;;;;;;26.53;44.35;99623.97;5092035;28;19916;-78
2023/08/23 02:16:54;;;;;;;;;;;;;;;26.52;45.24;99627.75;5092032;28;19919;-78
2023/08/23 02:19:19;;;;;;;;;;;;;;;26.50;43.93;99623.72;5092265;28;19935;-78
2023/08/23 02:21:45;;;;;;;;;;;;;;;26.46;44.12;99620.75;5092203;28;20300;-78
2023/08/23 02:24:10;;;;;;;;;;;;;;;26.45;43.62;99629.97;5092370;28;19919;-77
2023/08/23 02:26:35;;;;;;;;;;;;;;;26.44;43.91;99624.84;5092534;28;19916;-78
2023/08/23 02:29:01;;;;;;;;;;;;;;;26.48;43.43;99628.59;5074100;28;19918;-78
2023/08/23 02:31:26;;;;;;;;;;;;;;;26.48;43.97;99624.00;5073991;28;19916;-78
2023/08/23 02:33:51;;;;;;;;;;;;;;;26.47;44.09;99621.56;5091921;28;19922;-78
2023/08/23 02:36:17;;;;;;;;;;;;;;;26.44;43.99;99620.22;5092316;28;19912;-78
2023/08/23 02:38:42;;;;;;;;;;;;;;;26.40;44.09;99624.59;5092329;28;19991;-78
2023/08/23 02:41:08;;;;;;;;;;;;;;;26.36;44.14;99628.94;5092351;28;20423;-78
2023/08/23 02:43:33;;;;;;;;;;;;;;;26.31;44.87;99628.94;5092218;28;19916;-78
2023/08/23 02:45:58;;;;;;;;;;;;;;;26.31;44.35;99625.44;5092253;28;19946;-78
2023/08/23 02:48:24;;;;;;;;;;;;;;;26.29;44.01;99620.28;5091906;28;19912;-78
2023/08/23 02:50:49;;;;;;;;;;;;;;;26.26;44.41;99621.66;5091748;28;19905;-78
2023/08/23 02:53:15;;;;;;;;;;;;;;;26.20;44.76;99624.69;5073574;28;19966;-78
2023/08/23 02:55:40;;;;;;;;;;;;;;;26.16;44.36;99618.19;5091829;28;19916;-78
2023/08/23 02:58:05;;;;;;;;;;;;;;;26.11;46.04;99624.44;5073519;28;19912;-78
2023/08/23 03:00:31;;;;;;;;;;;;;;;26.11;44.01;99629.06;5091603;28;19920;-78
2023/08/23 03:02:56;;;;;;;;;;;;;;;26.10;44.21;99625.53;5091873;28;19912;-78
2023/08/23 03:05:21;;;;;;;;;;;;;;;26.10;44.72;99632.84;5092187;28;19911;-78
2023/08/23 03:07:47;;;;;;;;;;;;;;;26.08;44.85;99625.00;5092288;28;20553;-78
2023/08/23 03:10:12;;;;;;;;;;;;;;;26.06;45.42;99627.19;5091855;28;19911;-78
2023/08/23 03:12:38;;;;;;;;;;;;;;;26.04;45.29;99631.25;5092303;28;20304;-77
2023/08/23 03:15:03;;;;;;;;;;;;;;;26.02;45.46;99628.00;5091916;28;19965;-77
2023/08/23 03:17:28;;;;;;;;;;;;;;;25.95;45.21;99625.56;5091937;28;20444;-78
2023/08/23 03:19:55;;;;;;;;;;;;;;;25.93;45.19;99633.97;5092293;28;19912;-78
2023/08/23 03:22:20;;;;;;;;;;;;;;;25.97;45.03;99628.81;5092255;28;20308;-78
2023/08/23 03:24:46;;;;;;;;;;;;;;;25.96;45.07;99630.72;5093022;28;19918;-78
2023/08/23 03:27:11;;;;;;;;;;;;;;;25.96;44.92;99630.72;5094935;28;19919;-78
2023/08/23 03:29:36;;;;;;;;;;;;;;;25.95;44.55;99625.56;5094740;28;20356;-78
2023/08/23 03:32:01;;;;;;;;;;;;;;;25.85;46.43;99617.50;5091590;28;19945;-77
2023/08/23 03:34:27;;;;;;;;;;;;;;;25.82;44.52;99626.16;5091203;28;19959;-78
2023/08/23 03:36:52;;;;;;;;;;;;;;;25.80;45.53;99622.94;5091363;28;19917;-78
2023/08/23 03:39:17;;;;;;;;;;;;;;;25.77;46.21;99626.19;5091520;28;19912;-78
2023/08/23 03:41:43;;;;;;;;;;;;;;;25.79;45.79;99621.31;5091326;28;19923;-78
2023/08/23 03:44:08;;;;;;;;;;;;;;;25.77;45.64;99626.19;5073060;28;19966;-78
2023/08/23 03:46:33;;;;;;;;;;;;;;;25.74;44.43;99618.63;5073063;28;19912;-78
2023/08/23 03:48:58;;;;;;;;;;;;;;;25.73;46.25;99622.41;5093031;28;19912;-78
2023/08/23 03:51:23;;;;;;;;;;;;;;;25.71;45.70;99625.41;5095019;28;20021;-78
2023/08/23 03:53:49;;;;;;;;;;;;;;;25.71;46.60;99625.41;5094763;28;19916;-77
2023/08/23 03:56:14;;;;;;;;;;;;;;;25.72;45.80;99624.31;5094908;28;19965;-77
2023/08/23 03:58:39;;;;;;;;;;;;;;;25.73;46.13;99623.22;5094925;28;19951;-78
2023/08/23 04:01:04;;;;;;;;;;;;;;;25.72;45.54;99620.78;5094651;28;20388;-78
2023/08/23 04:03:30;;;;;;;;;;;;;;;25.72;46.95;99631.63;5094506;28;19919;-77
2023/08/23 04:05:57;;;;;;;;;;;;;;;25.71;45.42;99635.41;5094110;28;20334;-77
2023/08/23 04:08:22;;;;;;;;;;;;;;;25.69;45.35;99638.38;5076602;28;20308;-79
2023/08/23 04:10:48;;;;;;;;;;;;;;;25.72;45.44;99642.44;5094775;28;19908;-77
2023/08/23 04:13:13;;;;;;;;;;;;;;;25.73;45.52;99646.75;5094606;28;20316;-78
2023/08/23 04:15:41;;;;;;;;;;;;;;;25.73;45.38;99641.34;5094565;28;19969;-78
2023/08/23 04:18:06;;;;;;;;;;;;;;;25.76;45.86;99646.22;5094559;28;19973;-78
2023/08/23 04:20:31;;;;;;;;;;;;;;;25.77;46.09;99650.53;5094534;28;20254;-78
2023/08/23 04:22:57;;;;;;;;;;;;;;;25.77;45.41;99645.94;5094738;28;19966;-78
2023/08/23 04:25:22;;;;;;;;;;;;;;;25.80;46.55;99644.56;5094183;28;19912;-78
2023/08/23 04:27:47;;;;;;;;;;;;;;;25.80;46.70;99641.88;5076161;28;19912;-78
2023/08/23 04:30:12;;;;;;;;;;;;;;;25.83;46.15;99633.19;5094230;28;19972;-79
2023/08/23 04:32:38;;;;;;;;;;;;;;;25.84;45.93;99641.03;5094107;28;19916;-79
2023/08/23 04:35:04;;;;;;;;;;;;;;;25.85;45.61;99641.84;5094194;28;19916;-77
2023/08/23 04:37:29;;;;;;;;;;;;;;;25.88;45.89;99649.41;5094263;28;20377;-78
2023/08/23 04:39:54;;;;;;;;;;;;;;;25.94;46.34;99651.81;5076049;28;19926;-79
2023/08/23 04:42:20;;;;;;;;;;;;;;;25.98;45.80;99654.78;5094056;28;20010;-77
2023/08/23 04:44:45;;;;;;;;;;;;;;;26.02;46.81;99657.78;5093895;28;19912;-78
2023/08/23 04:47:10;;;;;;;;;;;;;;;26.05;44.33;99651.81;5093818;28;19915;-76
2023/08/23 04:49:35;;;;;;;;;;;;;;;25.98;45.66;99641.25;5086043;28;19913;-77
2023/08/23 04:52:01;;;;;;;;;;;;;;;26.02;45.78;99655.06;5072574;28;20389;-76
2023/08/23 04:54:26;;;;;;;;;;;;;;;26.07;45.67;99645.03;5073699;28;19924;-77
2023/08/23 04:56:51;;;;;;;;;;;;;;;26.11;45.47;99651.50;5073535;28;20359;-78
2023/08/23 04:59:16;;;;;;;;;;;;;;;26.16;45.44;99648.78;5054983;28;19912;-79
2023/08/23 05:01:42;;;;;;;;;;;;;;;26.20;45.62;99651.75;5054537;28;19956;-76
2023/08/23 05:04:07;;;;;;;;;;;;;;;26.27;45.82;99653.06;5073368;28;19917;-79
2023/08/23 05:06:33;;;;;;;;;;;;;;;26.36;44.74;99647.91;5073368;28;20331;-79
2023/08/23 05:08:59;;;;;;;;;;;;;;;26.42;45.37;99645.97;5073206;28;19912;-78
2023/08/23 05:11:24;;;;;;;;;;;;;;;26.47;45.52;99649.47;5073130;28;19920;-78
2023/08/23 05:13:49;;;;;;;;;;;;;;;26.52;45.13;99646.72;5072966;28;19970;-77
2023/08/23 05:16:14;;;;;;;;;;;;;;;26.62;45.21;99648.56;5073256;28;20327;-79
2023/08/23 05:18:40;;;;;;;;;;;;;;;26.70;45.02;99653.38;5073232;28;19916;-78
2023/08/23 05:21:05;;;;;;;;;;;;;;;26.79;44.78;99653.63;5072862;28;19916;-79
2023/08/23 05:23:30;;;;;;;;;;;;;;;26.86;44.29;99645.97;5072973;28;19912;-78
2023/08/23 05:25:56;;;;;;;;;;;;;;;26.89;44.77;99651.63;5072980;28;19974;-79
2023/08/23 05:28:21;;;;;;;;;;;;;;;26.98;44.62;99645.63;5072859;28;19945;-79
2023/08/23 05:30:47;;;;;;;;;;;;;;;27.07;44.27;99646.66;5072863;28;19913;-78
2023/08/23 05:33:12;;;;;;;;;;;;;;;27.13;44.63;99648.22;5072876;28;19913;-79
2023/08/23 05:35:41;;;;;;;;;;;;;;;27.21;44.18;99642.19;5072948;28;19966;-76
2023/08/23 05:38:06;;;;;;;;;;;;;;;27.30;44.04;99639.66;5072910;28;19987;-77
2023/08/23 05:40:31;;;;;;;;;;;;;;;27.37;44.09;99640.94;5075384;28;20011;-78
2023/08/23 05:42:57;;;;;;;;;;;;;;;27.47;44.15;99634.59;5078274;28;20438;-79
2023/08/23 05:45:26;;;;;;;;;;;;;;;27.56;43.90;99630.19;5089970;28;19912;-78
2023/08/23 05:47:51;;;;;;;;;;;;;;;27.64;44.00;99629.59;5088145;28;19916;-78
2023/08/23 05:50:17;;;;;;;;;;;;;;;27.72;44.01;99622.72;5085498;28;19919;-78
2023/08/23 05:52:42;;;;;;;;;;;;;;;27.80;43.78;99632.94;5074648;28;19963;-78
2023/08/23 05:55:08;;;;;;;;;;;;;;;27.84;43.20;99634.00;5073232;28;19916;-77
2023/08/23 05:57:33;;;;;;;;;;;;;;;27.90;42.69;99626.59;5084589;28;19917;-78
2023/08/23 05:59:59;;;;;;;;;;;;;;;27.96;43.06;99631.66;5072034;28;19927;-79
2023/08/23 06:02:24;;;;;;;;;;;;;;;28.05;43.19;99637.25;5091521;28;20002;-78
2023/08/23 06:04:50;;;;;;;;;;;;;;;28.13;43.63;99642.03;5092739;28;19931;-78
2023/08/23 06:07:15;;;;;;;;;;;;;;;28.16;42.47;99646.88;5092707;28;20015;-79
2023/08/23 06:09:40;;;;;;;;;;;;;;;28.21;42.58;99635.16;5092609;28;19912;-78
2023/08/23 06:12:06;;;;;;;;;;;;;;;28.24;43.55;99642.75;5092170;28;20006;-77
2023/08/23 06:14:31;;;;;;;;;;;;;;;28.28;43.34;99636.47;5092374;28;20351;-77
2023/08/23 06:16:56;;;;;;;;;;;;;;;28.33;42.40;99641.81;5073999;28;19916;-78
2023/08/23 06:19:22;;;;;;;;;;;;;;;28.37;41.53;99634.72;5054272;28;20003;-78
2023/08/23 06:21:47;;;;;;;;;;;;;;;28.43;42.10;99636.25;5072209;28;19916;-77
2023/08/23 06:24:13;;;;;;;;;;;;;;;28.45;43.23;99647.63;5073136;28;19916;-78
2023/08/23 06:26:38;;;;;;;;;;;;;;;28.48;42.71;99640.81;5073267;28;19974;-78
2023/08/23 06:29:03;;;;;;;;;;;;;;;28.54;42.21;99641.53;5072042;28;19919;-79
2023/08/23 06:31:29;;;;;;;;;;;;;;;28.58;42.87;99637.94;5075836;28;19920;-77
2023/08/23 06:33:54;;;;;;;;;;;;;;;28.62;41.89;99643.59;5077544;28;19924;-77
2023/08/23 06:36:19;;;;;;;;;;;;;;;28.72;41.60;99648.88;5092442;28;19916;-77
2023/08/23 06:38:45;;;;;;;;;;;;;;;28.68;42.96;99645.13;5107950;28;19912;-79
2023/08/23 06:41:10;;;;;;;;;;;;;;;28.70;42.46;99643.72;5098746;28;20457;-78
2023/08/23 06:43:35;;;;;;;;;;;;;;;28.78;41.92;99642.25;5086474;28;19908;-79
2023/08/23 06:46:01;;;;;;;;;;;;;;;28.88;41.44;99649.47;5072420;28;20282;-78
2023/08/23 06:48:26;;;;;;;;;;;;;;;28.95;41.81;99642.53;5075296;28;19916;-79
2023/08/23 06:50:52;;;;;;;;;;;;;;;29.06;41.76;99640.50;5076885;28;20298;-77
2023/08/23 06:53:17;;;;;;;;;;;;;;;29.12;41.55;99635.78;5082387;28;19923;-79
2023/08/23 06:55:42;;;;;;;;;;;;;;;29.16;41.07;99650.38;5082681;28;19920;-78
2023/08/23 06:58:07;;;;;;;;;;;;;;;29.18;41.37;99643.56;5072770;28;19970;-78
2023/08/23 07:00:33;;;;;;;;;;;;;;;29.26;40.55;99639.34;5089895;28;20427;-78
2023/08/23 07:02:58;;;;;;;;;;;;;;;29.32;40.62;99646.28;5083376;28;19916;-78
2023/08/23 07:05:24;;;;;;;;;;;;;;;29.37;41.14;99647.00;5078513;28;19920;-76
2023/08/23 07:07:49;;;;;;;;;;;;;;;29.45;40.12;99644.75;5061986;28;19916;-79
2023/08/23 07:10:14;;;;;;;;;;;;;;;29.51;40.30;99635.38;5089484;28;19922;-79
2023/08/23 07:12:39;;;;;;;;;;;;;;;29.57;39.72;99643.13;5084321;28;19961;-79
2023/08/23 07:15:05;;;;;;;;;;;;;;;29.65;39.58;99630.75;5082114;28;19921;-77
2023/08/23 07:17:30;;;;;;;;;;;;;;;29.70;39.85;99631.44;5090952;28;19916;-79
2023/08/23 07:19:56;;;;;;;;;;;;;;;29.76;39.32;99634.91;5072446;28;19916;-78
2023/08/23 07:22:21;;;;;;;;;;;;;;;29.86;39.29;99631.19;5084890;28;19920;-78
2023/08/23 07:24:46;;;;;;;;;;;;;;;29.93;38.78;99626.94;5092095;28;19916;-78
2023/08/23 07:27:11;;;;;;;;;;;;;;;30.02;38.67;99635.22;5087871;28;19952;-77
2023/08/23 07:29:37;;;;;;;;;;;;;;;30.05;38.58;99637.34;5082516;28;20328;-79
2023/08/23 07:32:04;;;;;;;;;;;;;;;30.11;38.95;99632.59;5088971;28;20011;-80
2023/08/23 07:34:29;;;;;;;;;;;;;;;30.21;38.75;99637.81;5081763;28;19927;-79
2023/08/23 07:36:54;;;;;;;;;;;;;;;30.26;38.81;99632.25;5076975;28;19920;-78
2023/08/23 07:39:20;;;;;;;;;;;;;;;30.35;38.54;99627.69;5093593;28;19916;-78
2023/08/23 07:41:45;;;;;;;;;;;;;;;30.44;38.34;99627.78;5094234;28;20310;-78
2023/08/23 07:44:10;;;;;;;;;;;;;;;30.55;38.21;99623.72;5069487;28;19967;-78
2023/08/23 07:46:36;;;;;;;;;;;;;;;30.64;38.10;99617.25;5083186;28;19922;-78
2023/08/23 07:49:01;;;;;;;;;;;;;;;30.74;37.78;99620.88;5082421;28;19923;-78
2023/08/23 07:51:26;;;;;;;;;;;;;;;30.83;36.98;99619.00;5094088;28;19916;-79
2023/08/23 07:53:51;;;;;;;;;;;;;;;30.86;36.81;99621.09;5084779;28;20512;-79
2023/08/23 07:56:17;;;;;;;;;;;;;;;30.98;36.88;99619.44;5079786;28;19950;-79
2023/08/23 07:58:43;;;;;;;;;;;;;;;31.09;37.05;99621.91;5083437;28;19939;-78
2023/08/23 08:01:08;;;;;;;;;;;;;;;31.19;36.60;99627.94;5088516;28;19943;-78
2023/08/23 08:03:33;;;;;;;;;;;;;;;31.24;36.25;99627.81;5091564;28;19916;-77
2023/08/23 08:05:58;;;;;;;;;;;;;;;31.34;36.34;99617.75;5070948;28;19916;-79
2023/08/23 08:08:24;;;;;;;;;;;;;;;31.43;36.07;99621.34;5071681;28;19938;-79
2023/08/23 08:10:49;;;;;;;;;;;;;;;31.54;35.50;99619.94;5094008;28;19961;-76
2023/08/23 08:13:15;;;;;;;;;;;;;;;31.66;35.85;99622.06;5094048;28;19912;-78
2023/08/23 08:15:41;;;;;;;;;;;;;;;31.76;35.41;99617.16;5094399;28;19916;-78
2023/08/23 08:18:07;;;;;;;;;;;;;;;31.87;35.76;99609.47;5092553;28;20370;-79
2023/08/23 08:20:32;;;;;;;;;;;;;;;31.98;34.09;99616.28;5092578;28;19916;-78
2023/08/23 08:22:57;;;;;;;;;;;;;;;32.07;34.51;99611.63;5092849;28;19990;-78
2023/08/23 08:25:23;;;;;;;;;;;;;;;32.18;33.98;99601.19;5086840;28;19917;-78
2023/08/23 08:27:49;;;;;;;;;;;;;;;32.30;33.62;99606.06;5072165;28;19912;-79
2023/08/23 08:30:15;;;;;;;;;;;;;;;32.40;33.57;99605.75;5072373;28;19944;-79
2023/08/23 08:32:40;;;;;;;;;;;;;;;32.51;34.54;99602.38;5073148;28;19952;-79
2023/08/23 08:35:05;;;;;;;;;;;;;;;32.62;33.80;99594.63;5073402;28;19966;-79
2023/08/23 08:37:31;;;;;;;;;;;;;;;32.74;33.62;99594.00;5073399;28;19920;-78
2023/08/23 08:39:56;;;;;;;;;;;;;;;32.87;33.24;99587.59;5073750;28;19919;-77
2023/08/23 08:42:21;;;;;;;;;;;;;;;33.00;33.13;99591.25;5073442;28;19916;-80
2023/08/23 08:44:47;;;;;;;;;;;;;;;33.11;32.45;99589.78;5089234;28;19942;-78
2023/08/23 08:47:13;;;;;;;;;;;;;;;33.23;33.40;99584.44;5090477;28;19924;-79
2023/08/23 08:49:38;;;;;;;;;;;;;;;33.36;32.63;99588.09;5074746;28;19935;-79
2023/08/23 08:52:04;;;;;;;;;;;;;;;33.45;32.31;99586.97;5073380;28;19919;-79
2023/08/23 08:54:30;;;;;;;;;;;;;;;33.58;32.85;99585.13;5077830;28;20345;-80
2023/08/23 08:56:55;;;;;;;;;;;;;;;33.68;32.76;99579.28;5089412;28;19916;-79
2023/08/23 08:59:21;;;;;;;;;;;;;;;33.83;30.61;99580.69;5093432;28;20438;-79
2023/08/23 09:01:46;;;;;;;;;;;;;;;33.99;32.27;99572.69;5092254;28;19942;-79
2023/08/23 09:04:12;;;;;;;;;;;;;;;34.11;31.10;99578.22;5091155;28;20390;-79
2023/08/23 09:06:37;;;;;;;;;;;;;;;34.25;31.36;99578.00;5087155;28;19916;-79
2023/08/23 09:09:03;;;;;;;;;;;;;;;34.34;31.32;99568.59;5082598;28;20409;-78
2023/08/23 09:11:29;;;;;;;;;;;;;;;34.51;30.68;99566.84;5088292;28;19912;-80
2023/08/23 09:13:55;;;;;;;;;;;;;;;34.65;30.20;99561.88;5087664;28;20328;-79
2023/08/23 09:16:20;;;;;;;;;;;;;;;34.84;31.16;99561.38;5092251;28;19992;-79
2023/08/23 09:18:46;;;;;;;;;;;;;;;35.03;30.95;99558.94;5084503;28;19912;-80
2023/08/23 09:21:12;;;;;;;;;;;;;;;35.13;30.46;99552.19;5072826;28;19920;-79
2023/08/23 09:23:37;;;;;;;;;;;;;;;35.28;30.27;99551.53;5072592;28;19912;-80
2023/08/23 09:26:03;;;;;;;;;;;;;;;35.40;28.24;99548.81;5072779;28;19919;-79
2023/08/23 09:28:29;;;;;;;;;;;;;;;35.48;30.00;99549.84;5073994;28;19920;-78
2023/08/23 09:30:54;;;;;;;;;;;;;;;35.63;29.89;99546.41;5054863;28;20011;-78
2023/08/23 09:33:20;;;;;;;;;;;;;;;35.78;28.70;99542.16;5077072;28;19917;-78
2023/08/23 09:35:48;;;;;;;;;;;;;;;35.97;28.44;99537.69;5072441;28;19974;-79
2023/08/23 09:38:22;;;;;;;;;;;;;;;36.21;27.68;99534.06;5072838;28;19979;-79
2023/08/23 09:40:48;;;;;;;;;;;;;;;36.39;28.62;99533.78;5073628;28;19916;-77
2023/08/23 09:43:17;;;;;;;;;;;;;;;36.45;25.64;99526.94;5081289;28;20000;-78
2023/08/23 09:45:43;;;;;;;;;;;;;;;36.57;26.56;99524.91;5088688;28;19924;-78
2023/08/23 09:48:09;;;;;;;;;;;;;;;36.63;27.84;99521.91;5089766;28;20039;-78
2023/08/23 09:50:34;;;;;;;;;;;;;;;36.41;26.94;99523.25;5073634;28;20397;-80
2023/08/23 09:53:01;;;;;;;;;;;;;;;36.06;27.89;99523.81;5088573;28;19922;-79
2023/08/23 09:55:26;;;;;;;;;;;;;;;35.91;27.58;99519.84;5087214;28;19931;-78
2023/08/23 09:57:55;;;;;;;;;;;;;;;36.19;27.40;99510.81;5075749;28;20313;-78
2023/08/23 10:00:23;;;;;;;;;;;;;;;36.50;25.83;99510.97;5079567;28;20325;-79
2023/08/23 10:02:48;;;;;;;;;;;;;;;36.46;27.28;99512.81;5075680;28;19924;-78
2023/08/23 10:05:18;;;;;;;;;;;;;;;36.64;25.99;99512.50;5065801;28;19920;-78
2023/08/23 10:07:43;;;;;;;;;;;;;;;36.78;25.25;99508.19;5082987;28;20374;-79
2023/08/23 10:10:09;;;;;;;;;;;;;;;36.95;25.66;99509.00;5072099;28;19963;-79
2023/08/23 10:12:36;;;;;;;;;;;;;;;36.84;25.33;99511.50;5083879;28;19912;-78
2023/08/23 10:15:02;;;;;;;;;;;;;;;36.54;25.97;99513.81;5082860;28;19986;-80
2023/08/23 10:17:29;;;;;;;;;;;;;;;36.13;26.42;99514.97;5065277;28;20310;-78
2023/08/23 10:19:55;;;;;;;;;;;;;;;35.90;26.23;99506.47;5072929;28;19920;-78
2023/08/23 10:22:20;;;;;;;;;;;;;;;35.88;26.54;99517.00;5083238;28;19919;-78
2023/08/23 10:24:47;;;;;;;;;;;;;;;36.08;25.38;99506.97;5078767;28;20023;-78
2023/08/23 10:27:13;;;;;;;;;;;;;;;36.18;26.22;99500.97;5082198;28;20408;-79
2023/08/23 10:29:38;;;;;;;;;;;;;;;36.42;25.96;99500.13;5067912;28;19924;-79
2023/08/23 10:32:05;;;;;;;;;;;;;;;36.84;25.34;99508.72;5082092;28;19916;-78
2023/08/23 10:34:33;;;;;;;;;;;;;;;37.25;24.98;99492.88;5090273;28;20282;-79
2023/08/23 10:36:58;;;;;;;;;;;;;;;37.70;24.24;99484.91;5076941;28;20376;-79
2023/08/23 10:39:23;;;;;;;;;;;;;;;37.95;25.29;99490.97;5082858;28;20007;-79
2023/08/23 10:41:53;;;;;;;;;;;;;;;37.83;24.12;99488.31;5071084;28;20003;-80
2023/08/23 10:44:19;;;;;;;;;;;;;;;37.83;25.09;99491.06;5071434;28;19923;-77
2023/08/23 10:46:45;;;;;;;;;;;;;;;38.11;23.33;99488.13;5071377;28;19927;-80
2023/08/23 10:49:13;;;;;;;;;;;;;;;38.29;24.29;99480.25;5072998;28;19939;-77
2023/08/23 10:51:41;;;;;;;;;;;;;;;38.37;24.21;99482.75;5081496;28;19915;-78
2023/08/23 10:54:10;;;;;;;;;;;;;;;38.53;22.50;99477.13;5074412;28;19924;-79
2023/08/23 10:56:35;;;;;;;;;;;;;;;38.74;22.81;99468.50;5075351;28;20052;-79
2023/08/23 10:59:00;;;;;;;;;;;;;;;38.88;23.99;99468.75;5092377;28;19937;-80
2023/08/23 11:01:25;;;;;;;;;;;;;;;38.97;22.60;99455.47;5095635;28;19920;-78
2023/08/23 11:03:51;;;;;;;;;;;;;;;39.04;23.52;99454.78;5094521;28;19984;-79
2023/08/23 11:06:17;;;;;;;;;;;;;;;39.08;22.77;99459.22;5091364;28;19917;-77
2023/08/23 11:08:43;;;;;;;;;;;;;;;39.09;22.15;99452.53;5075288;28;20385;-78
2023/08/23 11:11:09;;;;;;;;;;;;;;;38.54;23.03;99444.81;5075428;28;20010;-79
2023/08/23 11:13:34;;;;;;;;;;;;;;;38.04;23.31;99446.63;5081869;28;19951;-80
2023/08/23 11:15:59;;;;;;;;;;;;;;;38.06;24.53;99439.59;5095423;28;19916;-80
2023/08/23 11:18:24;;;;;;;;;;;;;;;37.98;23.66;99437.88;5095496;28;19916;-79
2023/08/23 11:20:50;;;;;;;;;;;;;;;38.20;24.12;99436.34;5093541;28;19924;-79
2023/08/23 11:23:15;;;;;;;;;;;;;;;38.39;23.65;99436.31;5075112;28;20373;-79
2023/08/23 11:25:40;;;;;;;;;;;;;;;38.11;23.96;99433.00;5075069;28;19913;-80
2023/08/23 11:28:06;;;;;;;;;;;;;;;37.66;23.97;99428.09;5078982;28;19927;-78
2023/08/23 11:30:32;;;;;;;;;;;;;;;37.20;24.21;99425.09;5074951;28;19951;-80
2023/08/23 11:32:57;;;;;;;;;;;;;;;37.03;24.69;99425.44;5074915;28;20404;-79
2023/08/23 11:35:23;;;;;;;;;;;;;;;37.47;24.20;99421.41;5075075;28;19916;-79
2023/08/23 11:37:49;;;;;;;;;;;;;;;37.90;24.49;99413.25;5057714;28;20454;-78
2023/08/23 11:40:15;;;;;;;;;;;;;;;38.27;23.35;99408.91;5074872;28;19916;-80
2023/08/23 11:42:40;;;;;;;;;;;;;;;38.62;23.30;99397.72;5092390;28;20640;-79
2023/08/23 11:45:06;;;;;;;;;;;;;;;38.97;23.14;99399.47;5095225;28;19912;-80
2023/08/23 11:47:33;;;;;;;;;;;;;;;39.33;22.76;99401.59;5095080;28;20311;-80
2023/08/23 11:49:58;;;;;;;;;;;;;;;39.25;22.73;99402.66;5094977;28;20402;-79
2023/08/23 11:52:24;;;;;;;;;;;;;;;38.83;23.25;99402.00;5090434;28;20005;-78
2023/08/23 11:54:53;;;;;;;;;;;;;;;38.50;23.36;99394.31;5093314;28;19920;-79
2023/08/23 11:57:18;;;;;;;;;;;;;;;38.33;23.34;99398.34;5089787;28;19974;-78
2023/08/23 11:59:44;;;;;;;;;;;;;;;38.42;24.09;99383.16;5093966;28;20016;-79
2023/08/23 12:02:09;;;;;;;;;;;;;;;38.78;23.30;99392.06;5090098;28;19917;-79
2023/08/23 12:04:34;;;;;;;;;;;;;;;39.08;23.02;99390.19;5058970;28;19912;-80
2023/08/23 12:07:00;;;;;;;;;;;;;;;39.22;22.52;99389.59;5082417;28;19966;-78
2023/08/23 12:09:28;;;;;;;;;;;;;;;39.26;22.72;99384.91;5091916;28;19930;-80
2023/08/23 12:11:53;;;;;;;;;;;;;;;39.30;22.08;99380.25;5083549;28;19912;-78
2023/08/23 12:14:19;;;;;;;;;;;;;;;39.36;22.95;99384.25;5084947;28;19931;-80
2023/08/23 12:16:44;;;;;;;;;;;;;;;39.28;23.46;99374.28;5089069;28;19916;-78
2023/08/23 12:19:09;;;;;;;;;;;;;;;39.30;22.47;99365.63;5073895;28;19995;-80
2023/08/23 12:21:35;;;;;;;;;;;;;;;39.45;23.21;99366.63;5088456;28;19928;-80
2023/08/23 12:24:00;;;;;;;;;;;;;;;39.50;22.23;99371.88;5086695;28;19917;-79
2023/08/23 12:26:25;;;;;;;;;;;;;;;39.44;22.99;99363.09;5079758;28;19920;-80
2023/08/23 12:28:51;;;;;;;;;;;;;;;39.47;22.03;99362.31;5087780;28;20425;-80
2023/08/23 12:31:16;;;;;;;;;;;;;;;39.52;21.83;99362.03;5076235;28;19916;-79
2023/08/23 12:33:42;;;;;;;;;;;;;;;39.61;21.78;99359.75;5074396;28;19970;-78
2023/08/23 12:36:07;;;;;;;;;;;;;;;39.78;21.27;99349.28;5086299;28;19920;-79
2023/08/23 12:38:32;;;;;;;;;;;;;;;39.75;20.64;99350.84;5093342;28;19912;-80